Time;durP1;ratioP1;P1;durP2;ratioP2;P2;SDS_P1;SDS_P2;PMS_P1;PMS_P2;Temp;Humidity;BMP_temperature;BMP_pressure;BME280_temperature;BME280_humidity;BME280_pressure;Samples;Min_cycle;Max_cycle;Signal;HPM_P1;HPM_P2
2022/11/23 00:00:57;;;;;;;10.40;3.45;;;9.00;99.90;;;;;;5073320;28;20641;-48
2022/11/23 00:03:22;;;;;;;5.20;1.80;;;9.00;99.90;;;;;;5073475;28;20172;-50
2022/11/23 00:05:48;;;;;;;8.05;3.15;;;9.00;99.90;;;;;;5073407;28;20162;-48
2022/11/23 00:08:13;;;;;;;5.90;2.83;;;9.10;99.90;;;;;;5073310;28;20165;-46
2022/11/23 00:10:39;;;;;;;10.48;3.17;;;9.10;99.90;;;;;;5072830;28;20223;-46
2022/11/23 00:13:04;;;;;;;6.78;2.85;;;9.10;99.90;;;;;;5073178;28;20209;-46
2022/11/23 00:15:31;;;;;;;7.68;3.20;;;9.10;99.90;;;;;;5073702;28;20265;-46
2022/11/23 00:17:58;;;;;;;9.73;2.92;;;9.10;99.90;;;;;;5073677;28;20563;-43
2022/11/23 00:20:24;;;;;;;5.40;2.20;;;9.10;99.90;;;;;;5073452;28;20166;-45
2022/11/23 00:22:50;;;;;;;6.38;1.85;;;9.20;99.90;;;;;;5074422;28;20525;-46
2022/11/23 00:25:15;;;;;;;2.80;1.42;;;9.10;99.90;;;;;;5074793;28;20174;-46
2022/11/23 00:27:41;;;;;;;3.58;1.20;;;9.10;99.90;;;;;;5074738;28;20205;-46
2022/11/23 00:30:07;;;;;;;7.78;1.98;;;9.00;99.90;;;;;;5074683;28;20189;-46
2022/11/23 00:32:33;;;;;;;7.95;2.28;;;9.10;99.90;;;;;;5074500;28;20237;-46
2022/11/23 00:34:58;;;;;;;6.72;2.00;;;9.10;99.90;;;;;;5074938;28;20185;-46
2022/11/23 00:37:24;;;;;;;7.97;2.92;;;9.10;99.90;;;;;;5074561;28;20219;-46
2022/11/23 00:39:49;;;;;;;13.23;3.28;;;9.10;99.90;;;;;;5074541;28;20169;-46
2022/11/23 00:42:15;;;;;;;6.32;2.85;;;9.10;99.90;;;;;;5074500;28;20521;-46
2022/11/23 00:44:40;;;;;;;5.38;2.53;;;9.00;99.90;;;;;;5074449;28;20184;-46
2022/11/23 00:47:06;;;;;;;11.27;2.97;;;9.00;99.90;;;;;;5074372;28;20173;-47
2022/11/23 00:49:32;;;;;;;13.55;3.58;;;9.00;99.90;;;;;;5074720;28;20174;-46
2022/11/23 00:51:57;;;;;;;4.90;2.20;;;9.00;99.90;;;;;;5074528;28;20206;-46
2022/11/23 00:54:23;;;;;;;4.90;1.75;;;9.00;99.90;;;;;;5074201;28;20532;-47
2022/11/23 00:56:48;;;;;;;6.72;3.15;;;9.00;99.90;;;;;;5074198;28;20552;-46
2022/11/23 00:59:14;;;;;;;9.13;2.90;;;9.00;99.90;;;;;;5073944;28;20529;-46
2022/11/23 01:01:39;;;;;;;10.00;2.72;;;9.00;99.90;;;;;;5074405;28;20232;-47
2022/11/23 01:04:07;;;;;;;3.28;1.90;;;9.00;99.90;;;;;;5073483;28;20241;-46
2022/11/23 01:06:38;;;;;;;6.47;1.88;;;9.00;99.90;;;;;;5073389;28;20202;-46
2022/11/23 01:09:16;;;;;;;4.78;1.40;;;9.00;99.90;;;;;;5074003;28;20177;-46
2022/11/23 01:11:43;;;;;;;4.40;1.45;;;9.00;99.90;;;;;;5074115;28;20258;-46
2022/11/23 01:14:09;;;;;;;3.25;1.48;;;9.00;99.90;;;;;;5073880;28;20509;-46
2022/11/23 01:16:37;;;;;;;5.88;1.10;;;9.00;99.90;;;;;;5074042;28;20196;-46
2022/11/23 01:19:05;;;;;;;7.00;1.75;;;9.10;99.90;;;;;;5073748;28;20205;-46
2022/11/23 01:21:32;;;;;;;8.80;1.70;;;9.00;99.90;;;;;;5074107;28;20177;-47
2022/11/23 01:23:58;;;;;;;5.82;1.85;;;9.10;99.90;;;;;;5074184;28;20166;-46
2022/11/23 01:26:24;;;;;;;4.78;1.27;;;9.10;99.90;;;;;;5073611;28;20169;-46
2022/11/23 01:28:50;;;;;;;3.97;1.27;;;9.10;99.90;;;;;;5073653;28;20174;-46
2022/11/23 01:31:20;;;;;;;4.57;1.83;;;9.10;99.90;;;;;;5073359;28;20250;-46
2022/11/23 01:33:46;;;;;;;2.65;1.25;;;9.10;99.90;;;;;;5073776;28;20182;-48
2022/11/23 01:36:14;;;;;;;6.03;1.90;;;9.10;99.90;;;;;;5073418;28;20162;-46
2022/11/23 01:38:40;;;;;;;4.82;1.48;;;9.10;99.90;;;;;;5073364;28;20216;-46
2022/11/23 01:41:07;;;;;;;5.68;1.27;;;9.10;99.90;;;;;;5073404;28;20647;-47
2022/11/23 01:43:33;;;;;;;4.32;1.35;;;9.10;99.90;;;;;;5073298;28;20524;-47
2022/11/23 01:46:00;;;;;;;1.83;1.17;;;9.10;99.90;;;;;;5073650;28;20163;-47
2022/11/23 01:48:44;;;;;;;5.38;1.48;;;9.10;99.90;;;;;;5073397;28;20174;-46
2022/11/23 01:51:14;;;;;;;3.65;1.48;;;9.00;99.90;;;;;;5073170;28;20194;-47
2022/11/23 01:53:41;;;;;;;3.88;1.45;;;9.10;99.90;;;;;;5073049;28;20677;-46
2022/11/23 01:56:11;;;;;;;4.50;1.33;;;9.10;99.90;;;;;;5073067;28;20255;-47
2022/11/23 01:58:41;;;;;;;4.80;1.80;;;9.10;99.90;;;;;;5072911;28;20169;-48
2022/11/23 02:01:07;;;;;;;4.75;2.00;;;9.10;99.90;;;;;;5072786;28;20224;-46
2022/11/23 02:03:35;;;;;;;11.48;2.83;;;9.00;99.90;;;;;;5072914;28;20562;-47
2022/11/23 02:06:04;;;;;;;9.40;3.40;;;9.00;99.90;;;;;;5073085;28;20622;-47
2022/11/23 02:08:30;;;;;;;10.48;3.88;;;9.00;99.90;;;;;;5073368;28;20170;-46
2022/11/23 02:10:58;;;;;;;8.77;3.60;;;9.00;99.90;;;;;;5072980;28;20212;-47
2022/11/23 02:13:26;;;;;;;6.07;1.92;;;9.00;99.90;;;;;;5072598;28;20208;-47
2022/11/23 02:15:52;;;;;;;5.55;1.83;;;9.00;99.90;;;;;;5072434;28;20170;-47
2022/11/23 02:18:22;;;;;;;6.40;2.65;;;9.00;99.90;;;;;;5072571;28;20193;-46
2022/11/23 02:20:48;;;;;;;8.65;3.25;;;9.00;99.90;;;;;;5072535;28;20177;-47
2022/11/23 02:23:29;;;;;;;10.95;3.17;;;9.10;99.90;;;;;;5072451;28;20694;-46
2022/11/23 02:26:08;;;;;;;8.88;2.83;;;9.10;99.90;;;;;;5072423;28;20166;-47
2022/11/23 02:28:43;;;;;;;10.70;3.70;;;9.10;99.90;;;;;;5072423;28;20637;-46
2022/11/23 02:31:08;;;;;;;13.27;3.63;;;9.00;99.90;;;;;;5072397;28;20211;-47
2022/11/23 02:33:37;;;;;;;7.90;2.70;;;9.10;99.90;;;;;;5072464;28;20205;-47
2022/11/23 02:36:32;;;;;;;7.82;3.60;;;9.10;99.90;;;;;;5072590;28;20180;-46
2022/11/23 02:39:00;;;;;;;14.88;2.90;;;9.10;99.90;;;;;;5072607;28;20166;-47
2022/11/23 02:41:25;;;;;;;7.47;2.45;;;9.00;99.90;;;;;;5072092;28;20166;-49
2022/11/23 02:43:56;;;;;;;7.38;2.45;;;9.00;99.90;;;;;;5054245;28;20605;-48
2022/11/23 02:46:21;;;;;;;7.80;3.08;;;9.10;99.90;;;;;;5072118;28;20170;-51
2022/11/23 02:48:47;;;;;;;14.07;3.75;;;9.00;99.90;;;;;;5072050;28;20169;-49
2022/11/23 02:51:13;;;;;;;6.88;2.75;;;9.10;99.90;;;;;;5072325;28;20174;-47
2022/11/23 02:53:38;;;;;;;7.53;2.90;;;9.00;99.90;;;;;;5071896;28;20684;-49
2022/11/23 02:56:04;;;;;;;10.13;2.60;;;9.00;99.90;;;;;;5072050;28;20174;-47
2022/11/23 02:58:29;;;;;;;5.72;2.38;;;9.00;99.90;;;;;;5072285;28;20170;-50
2022/11/23 03:00:55;;;;;;;7.22;2.15;;;9.10;99.90;;;;;;5071712;28;20210;-49
2022/11/23 03:03:20;;;;;;;8.38;2.53;;;9.00;99.90;;;;;;5071945;28;20763;-47
2022/11/23 03:05:46;;;;;;;9.05;2.78;;;9.10;99.90;;;;;;5071838;28;20651;-47
2022/11/23 03:08:12;;;;;;;4.07;2.33;;;9.10;99.90;;;;;;5071821;28;20537;-49
2022/11/23 03:10:37;;;;;;;8.80;2.33;;;9.10;99.90;;;;;;5071895;28;20173;-50
2022/11/23 03:13:03;;;;;;;4.35;2.25;;;9.10;99.90;;;;;;5071812;28;20304;-47
2022/11/23 03:15:28;;;;;;;10.02;3.80;;;9.10;99.90;;;;;;5071981;28;20622;-48
2022/11/23 03:17:56;;;;;;;18.92;4.43;;;9.10;99.90;;;;;;5071685;28;20169;-49
2022/11/23 03:20:21;;;;;;;11.15;3.47;;;9.00;99.90;;;;;;5071658;28;20177;-49
2022/11/23 03:22:47;;;;;;;9.40;2.40;;;9.00;99.90;;;;;;5071673;28;20538;-46
2022/11/23 03:25:13;;;;;;;6.78;3.22;;;9.10;99.90;;;;;;5071668;28;20282;-47
2022/11/23 03:27:38;;;;;;;10.77;3.05;;;9.00;99.90;;;;;;5071224;28;20170;-48
2022/11/23 03:30:06;;;;;;;13.40;3.38;;;9.10;99.90;;;;;;5071547;28;20173;-49
2022/11/23 03:32:31;;;;;;;6.63;2.33;;;9.10;99.90;;;;;;5071469;28;20401;-51
2022/11/23 03:34:57;;;;;;;9.35;2.42;;;9.10;99.90;;;;;;5072056;28;20166;-49
2022/11/23 03:37:24;;;;;;;8.23;1.95;;;9.10;99.90;;;;;;5071461;28;20653;-48
2022/11/23 03:39:49;;;;;;;5.93;1.60;;;9.00;99.90;;;;;;5071747;28;20243;-48
2022/11/23 03:42:15;;;;;;;3.92;1.40;;;9.00;99.90;;;;;;5071506;28;20194;-48
2022/11/23 03:44:40;;;;;;;6.50;1.52;;;9.00;99.90;;;;;;5071487;28;20174;-49
2022/11/23 03:47:06;;;;;;;4.22;1.50;;;8.90;99.90;;;;;;5071736;28;20172;-48
2022/11/23 03:49:31;;;;;;;3.63;1.60;;;8.90;99.90;;;;;;5071577;28;20173;-47
2022/11/23 03:51:57;;;;;;;7.40;1.98;;;8.80;99.90;;;;;;5071792;28;20601;-46
2022/11/23 03:54:23;;;;;;;8.00;2.17;;;8.90;99.90;;;;;;5071334;28;20699;-46
2022/11/23 03:56:48;;;;;;;8.30;3.75;;;8.90;99.90;;;;;;5071268;28;20173;-46
2022/11/23 03:59:14;;;;;;;16.25;4.00;;;9.00;99.90;;;;;;5071156;28;20197;-46
2022/11/23 04:01:39;;;;;;;15.27;5.38;;;9.00;99.90;;;;;;5071562;28;20215;-47
2022/11/23 04:04:05;;;;;;;11.90;4.05;;;9.00;99.90;;;;;;5071313;28;20173;-46
2022/11/23 04:06:30;;;;;;;7.20;2.25;;;9.00;99.90;;;;;;5071559;28;20644;-46
2022/11/23 04:08:56;;;;;;;10.52;2.92;;;9.00;99.90;;;;;;5071816;28;20216;-46
2022/11/23 04:11:21;;;;;;;7.63;3.25;;;9.00;99.90;;;;;;5071131;28;20159;-46
2022/11/23 04:13:47;;;;;;;9.30;3.30;;;9.00;99.90;;;;;;5071278;28;20188;-48
2022/11/23 04:16:13;;;;;;;13.63;3.83;;;9.00;99.90;;;;;;5071074;28;20248;-46
2022/11/23 04:18:39;;;;;;;10.63;2.53;;;9.10;99.90;;;;;;5071231;28;20277;-47
2022/11/23 04:21:05;;;;;;;7.72;3.15;;;9.00;99.90;;;;;;5053192;28;20170;-48
2022/11/23 04:23:30;;;;;;;12.63;3.40;;;9.00;99.90;;;;;;5071429;28;20630;-46
2022/11/23 04:25:56;;;;;;;10.25;2.03;;;9.00;99.90;;;;;;5071537;28;20535;-46
2022/11/23 04:28:21;;;;;;;8.32;1.98;;;9.00;99.90;;;;;;5071056;28;20166;-47
2022/11/23 04:30:47;;;;;;;7.30;2.15;;;8.90;99.90;;;;;;5071055;28;20173;-47
2022/11/23 04:33:12;;;;;;;8.07;3.05;;;8.90;99.90;;;;;;5070972;28;20205;-47
2022/11/23 04:35:38;;;;;;;17.08;3.00;;;8.90;99.90;;;;;;5071235;28;20166;-46
2022/11/23 04:38:04;;;;;;;6.75;2.10;;;8.90;99.90;;;;;;5070939;28;20257;-46
2022/11/23 04:40:30;;;;;;;7.68;2.13;;;8.90;99.90;;;;;;5073236;28;20174;-47
2022/11/23 04:42:57;;;;;;;8.40;2.15;;;8.90;99.90;;;;;;5075010;28;20253;-47
2022/11/23 04:45:22;;;;;;;4.78;2.08;;;8.90;99.90;;;;;;5074367;28;20162;-48
2022/11/23 04:47:48;;;;;;;8.85;2.50;;;8.90;99.90;;;;;;5056511;28;20180;-47
2022/11/23 04:50:14;;;;;;;11.68;2.92;;;8.90;99.90;;;;;;5074289;28;20162;-47
2022/11/23 04:52:39;;;;;;;8.43;2.33;;;8.90;99.90;;;;;;5074270;28;20714;-47
2022/11/23 04:55:05;;;;;;;12.60;3.42;;;9.00;99.90;;;;;;5074339;28;20166;-46
2022/11/23 04:57:31;;;;;;;10.93;3.35;;;9.00;99.90;;;;;;5074213;28;20253;-46
2022/11/23 04:59:56;;;;;;;5.30;2.47;;;9.00;99.90;;;;;;5074396;28;20570;-47
2022/11/23 05:02:22;;;;;;;10.45;3.70;;;9.00;99.90;;;;;;5074161;28;20648;-46
2022/11/23 05:04:47;;;;;;;11.50;4.10;;;9.10;99.90;;;;;;5074016;28;20576;-47
2022/11/23 05:07:13;;;;;;;11.68;3.92;;;9.10;99.90;;;;;;5073907;28;20703;-46
2022/11/23 05:09:39;;;;;;;12.82;4.05;;;9.00;99.90;;;;;;5074001;28;20689;-47
2022/11/23 05:12:05;;;;;;;16.58;4.60;;;9.10;99.90;;;;;;5073839;28;20561;-47
2022/11/23 05:14:30;;;;;;;13.93;3.45;;;9.10;99.90;;;;;;5074183;28;20158;-46
2022/11/23 05:16:56;;;;;;;12.18;3.67;;;9.00;99.90;;;;;;5074135;28;20170;-47
2022/11/23 05:19:21;;;;;;;10.43;3.30;;;9.00;99.90;;;;;;5055870;28;20180;-47
2022/11/23 05:21:47;;;;;;;9.25;3.28;;;9.00;99.90;;;;;;5073692;28;20166;-47
2022/11/23 05:24:12;;;;;;;20.65;4.28;;;9.00;99.90;;;;;;5073758;28;20691;-46
2022/11/23 05:26:38;;;;;;;10.02;3.75;;;9.00;99.90;;;;;;5073616;28;20653;-47
2022/11/23 05:29:03;;;;;;;13.48;3.70;;;9.00;99.90;;;;;;5073485;28;20166;-48
2022/11/23 05:31:29;;;;;;;14.13;3.25;;;9.00;99.90;;;;;;5074091;28;20196;-47
2022/11/23 05:33:54;;;;;;;10.68;3.10;;;8.90;99.90;;;;;;5073462;28;20166;-47
2022/11/23 05:36:20;;;;;;;12.25;3.10;;;8.90;99.90;;;;;;5073485;28;20166;-48
2022/11/23 05:38:45;;;;;;;8.40;2.30;;;8.90;99.90;;;;;;5073488;28;20653;-47
2022/11/23 05:41:11;;;;;;;8.98;2.85;;;8.90;99.90;;;;;;5073431;28;20634;-49
2022/11/23 05:43:37;;;;;;;7.10;2.25;;;8.80;99.90;;;;;;5073265;28;20166;-48
2022/11/23 05:46:02;;;;;;;12.20;6.25;;;8.80;99.90;;;;;;5073275;28;20180;-50
2022/11/23 05:48:28;;;;;;;7.88;3.50;;;8.70;99.90;;;;;;5073479;28;20162;-47
2022/11/23 05:50:53;;;;;;;5.97;2.42;;;8.80;99.90;;;;;;5072698;28;20223;-49
2022/11/23 05:53:19;;;;;;;13.73;6.07;;;8.70;99.90;;;;;;5073286;28;20557;-47
2022/11/23 05:55:45;;;;;;;9.55;4.07;;;8.70;99.90;;;;;;5073046;28;20169;-47
2022/11/23 05:58:11;;;;;;;10.48;2.55;;;8.60;99.90;;;;;;5073040;28;20536;-50
2022/11/23 06:00:36;;;;;;;13.45;4.38;;;8.70;99.90;;;;;;5072839;28;20218;-47
2022/11/23 06:03:02;;;;;;;6.93;2.25;;;8.70;99.90;;;;;;5073187;28;20172;-47
2022/11/23 06:05:28;;;;;;;7.57;1.73;;;8.70;99.90;;;;;;5073297;28;20261;-47
2022/11/23 06:07:54;;;;;;;8.00;2.05;;;8.70;99.90;;;;;;5072769;28;20186;-46
2022/11/23 06:10:20;;;;;;;6.40;2.22;;;8.70;99.90;;;;;;5072875;28;20729;-51
2022/11/23 06:12:45;;;;;;;8.68;2.20;;;8.70;99.90;;;;;;5072743;28;20570;-49
2022/11/23 06:15:11;;;;;;;9.10;2.35;;;8.70;99.90;;;;;;5072673;28;20165;-46
2022/11/23 06:17:37;;;;;;;16.13;4.00;;;8.70;99.90;;;;;;5072921;28;20181;-48
2022/11/23 06:20:05;;;;;;;10.05;3.22;;;8.70;99.90;;;;;;5072566;28;20166;-48
2022/11/23 06:22:31;;;;;;;15.27;5.32;;;8.70;99.90;;;;;;5072579;28;20594;-50
2022/11/23 06:24:56;;;;;;;5.07;1.80;;;8.70;99.90;;;;;;5072935;28;20197;-47
2022/11/23 06:27:22;;;;;;;5.80;1.90;;;8.60;99.90;;;;;;5072407;28;20177;-48
2022/11/23 06:29:47;;;;;;;8.70;2.20;;;8.60;99.90;;;;;;5072503;28;20165;-47
2022/11/23 06:32:14;;;;;;;7.07;2.42;;;8.60;99.90;;;;;;5072326;28;20220;-47
2022/11/23 06:34:39;;;;;;;5.35;1.63;;;8.60;99.90;;;;;;5072213;28;20617;-47
2022/11/23 06:37:05;;;;;;;9.02;3.90;;;8.60;99.90;;;;;;5072152;28;20245;-47
2022/11/23 06:39:30;;;;;;;13.68;5.70;;;8.60;99.90;;;;;;5072267;28;20173;-47
2022/11/23 06:41:56;;;;;;;7.82;2.78;;;8.50;99.90;;;;;;5072613;28;20554;-47
2022/11/23 06:44:21;;;;;;;9.40;2.38;;;8.50;99.90;;;;;;5071947;28;20170;-47
2022/11/23 06:46:47;;;;;;;10.57;2.45;;;8.40;99.90;;;;;;5071703;28;20166;-46
2022/11/23 06:49:13;;;;;;;6.68;2.50;;;8.40;99.90;;;;;;5071801;28;20696;-47
2022/11/23 06:51:38;;;;;;;10.63;2.22;;;8.30;99.90;;;;;;5071941;28;20214;-46
2022/11/23 06:54:04;;;;;;;6.43;2.00;;;8.30;99.90;;;;;;5072022;28;20198;-47
2022/11/23 06:56:32;;;;;;;5.80;1.83;;;8.30;99.90;;;;;;5071841;28;20170;-49
2022/11/23 06:58:58;;;;;;;9.68;2.78;;;8.70;99.90;;;;;;5072460;28;20553;-47
2022/11/23 07:01:24;;;;;;;7.05;1.83;;;8.30;99.90;;;;;;5071824;28;20224;-48
2022/11/23 07:03:49;;;;;;;9.90;2.38;;;8.30;99.90;;;;;;5071112;28;20197;-47
2022/11/23 07:06:15;;;;;;;10.32;2.40;;;8.30;99.90;;;;;;5071774;28;20170;-47
2022/11/23 07:08:42;;;;;;;5.50;1.70;;;8.30;99.90;;;;;;5071717;28;20211;-47
2022/11/23 07:11:09;;;;;;;8.02;1.60;;;8.30;99.90;;;;;;5071730;28;20228;-46
2022/11/23 07:13:35;;;;;;;8.50;2.47;;;8.30;99.90;;;;;;5071761;28;20201;-47
2022/11/23 07:16:01;;;;;;;7.55;2.40;;;8.30;99.90;;;;;;5071695;28;20249;-48
2022/11/23 07:18:26;;;;;;;11.30;2.70;;;8.30;99.90;;;;;;5072078;28;20169;-47
2022/11/23 07:20:52;;;;;;;5.20;2.03;;;8.30;99.90;;;;;;5071577;28;20169;-47
2022/11/23 07:23:18;;;;;;;4.68;1.60;;;8.30;99.90;;;;;;5071838;28;20509;-48
2022/11/23 07:25:43;;;;;;;11.52;2.10;;;8.30;99.90;;;;;;5067194;28;20189;-45
2022/11/23 07:28:11;;;;;;;8.38;2.67;;;8.30;99.90;;;;;;5051578;28;20361;-49
2022/11/23 07:30:37;;;;;;;8.43;2.03;;;8.30;99.90;;;;;;5051524;28;20159;-47
2022/11/23 07:33:05;;;;;;;7.20;2.05;;;8.30;99.90;;;;;;5051065;28;20220;-46
2022/11/23 07:35:34;;;;;;;10.52;4.43;;;8.20;99.90;;;;;;5051530;28;20170;-47
2022/11/23 07:38:01;;;;;;;7.10;1.80;;;8.20;99.90;;;;;;5051505;28;20179;-49
2022/11/23 07:40:26;;;;;;;6.32;1.70;;;8.20;99.90;;;;;;5066703;28;20189;-47
2022/11/23 07:42:52;;;;;;;7.68;1.90;;;8.10;99.90;;;;;;5058707;28;20293;-47
2022/11/23 07:45:18;;;;;;;4.97;2.15;;;8.10;99.90;;;;;;5050030;28;20597;-47
2022/11/23 07:47:44;;;;;;;8.70;2.97;;;8.10;99.90;;;;;;5049685;28;20166;-48
2022/11/23 07:50:11;;;;;;;9.65;2.80;;;8.10;99.90;;;;;;5049841;28;20193;-50
2022/11/23 07:52:38;;;;;;;8.27;1.70;;;8.10;99.90;;;;;;5049480;28;20299;-46
2022/11/23 07:55:05;;;;;;;9.02;2.22;;;8.20;99.90;;;;;;5049797;28;20716;-49
2022/11/23 07:57:30;;;;;;;4.88;2.08;;;8.20;99.90;;;;;;5049993;28;20221;-47
2022/11/23 07:59:56;;;;;;;8.40;2.35;;;8.20;99.90;;;;;;5049918;28;20214;-47
2022/11/23 08:02:22;;;;;;;13.00;2.60;;;8.30;99.90;;;;;;5049631;28;20171;-47
2022/11/23 08:04:47;;;;;;;12.50;2.40;;;8.30;99.90;;;;;;5049702;28;20537;-47
2022/11/23 08:07:13;;;;;;;10.40;2.25;;;8.40;99.90;;;;;;5049551;28;20175;-47
2022/11/23 08:09:39;;;;;;;7.82;1.42;;;8.40;99.90;;;;;;5049355;28;20236;-49
2022/11/23 08:12:05;;;;;;;7.90;1.75;;;8.40;99.90;;;;;;5031124;28;20195;-47
2022/11/23 08:14:30;;;;;;;14.52;2.25;;;8.50;99.90;;;;;;5051506;28;20190;-47
2022/11/23 08:16:56;;;;;;;7.85;2.40;;;8.50;99.90;;;;;;5053708;28;20554;-47
2022/11/23 08:19:22;;;;;;;6.30;1.90;;;8.50;99.90;;;;;;5053115;28;20181;-47
2022/11/23 08:21:47;;;;;;;9.05;2.28;;;8.60;99.90;;;;;;5053183;28;20182;-47
2022/11/23 08:24:13;;;;;;;10.23;2.92;;;8.70;99.90;;;;;;5052925;28;20170;-47
2022/11/23 08:26:38;;;;;;;8.68;2.50;;;8.80;99.90;;;;;;5052867;28;20163;-48
2022/11/23 08:29:04;;;;;;;11.85;3.25;;;8.80;99.90;;;;;;5052907;28;20621;-48
2022/11/23 08:31:29;;;;;;;7.97;2.58;;;8.90;99.90;;;;;;5052896;28;20511;-48
2022/11/23 08:33:55;;;;;;;12.25;2.45;;;9.00;99.90;;;;;;5053070;28;20222;-48
2022/11/23 08:36:21;;;;;;;10.90;2.53;;;9.10;99.90;;;;;;5052710;28;20196;-45
2022/11/23 08:38:50;;;;;;;9.65;2.38;;;9.10;99.90;;;;;;5018459;28;20170;-51
2022/11/23 08:41:19;;;;;;;8.82;2.15;;;9.20;99.90;;;;;;5052907;28;20159;-47
2022/11/23 08:43:49;;;;;;;4.90;2.08;;;9.20;99.90;;;;;;5052892;28;20220;-46
2022/11/23 08:46:15;;;;;;;17.50;2.97;;;9.30;99.90;;;;;;5052644;28;20174;-51
2022/11/23 08:48:40;;;;;;;10.50;2.53;;;9.30;99.90;;;;;;5052563;28;20221;-46
2022/11/23 08:51:06;;;;;;;7.20;2.60;;;9.30;99.90;;;;;;5052450;28;20178;-48
2022/11/23 08:53:32;;;;;;;8.00;2.22;;;9.40;99.90;;;;;;5052313;28;20666;-45
2022/11/23 08:56:02;;;;;;;7.28;2.53;;;9.30;99.90;;;;;;5052765;28;20163;-48
2022/11/23 08:58:28;;;;;;;9.85;2.47;;;9.40;99.90;;;;;;5053019;28;20167;-46
2022/11/23 09:00:53;;;;;;;8.93;2.00;;;9.50;99.90;;;;;;5052251;28;20222;-49
2022/11/23 09:03:19;;;;;;;10.57;2.50;;;9.40;99.90;;;;;;5052282;28;20167;-47
2022/11/23 09:05:45;;;;;;;10.18;2.58;;;9.50;99.90;;;;;;5052176;28;20167;-47
2022/11/23 09:08:10;;;;;;;12.05;3.05;;;9.50;99.90;;;;;;5052442;28;20631;-50
2022/11/23 09:10:37;;;;;;;7.65;2.00;;;9.60;99.90;;;;;;5052289;28;20643;-45
2022/11/23 09:13:02;;;;;;;10.45;2.47;;;9.60;99.90;;;;;;5052371;28;20218;-48
2022/11/23 09:15:28;;;;;;;8.82;2.35;;;9.50;99.90;;;;;;5052494;28;20190;-46
2022/11/23 09:17:55;;;;;;;7.72;2.28;;;9.60;99.90;;;;;;5052274;28;20170;-48
2022/11/23 09:20:21;;;;;;;6.25;2.00;;;9.70;99.90;;;;;;5052017;28;20167;-46
2022/11/23 09:22:51;;;;;;;9.90;2.25;;;9.70;99.90;;;;;;5052074;28;20175;-46
2022/11/23 09:25:17;;;;;;;7.47;2.55;;;9.70;99.90;;;;;;5051323;28;20182;-46
2022/11/23 09:27:42;;;;;;;8.25;2.45;;;9.70;99.90;;;;;;5052098;28;20261;-46
2022/11/23 09:30:09;;;;;;;7.10;2.38;;;9.80;99.90;;;;;;5051722;28;20192;-46
2022/11/23 09:32:34;;;;;;;10.55;2.20;;;9.90;99.90;;;;;;5051602;28;20682;-46
2022/11/23 09:35:00;;;;;;;12.18;2.30;;;10.00;99.90;;;;;;5052217;28;20269;-46
2022/11/23 09:37:25;;;;;;;7.43;2.63;;;10.00;99.90;;;;;;5051896;28;20516;-46
2022/11/23 09:39:51;;;;;;;8.27;2.10;;;10.00;99.90;;;;;;5051738;28;20167;-46
2022/11/23 09:42:41;;;;;;;8.25;2.75;;;10.00;99.90;;;;;;5051556;28;20258;-46
2022/11/23 09:45:49;;;;;;;9.07;2.60;;;10.00;99.90;;;;;;5051820;28;20208;-53
2022/11/23 09:48:38;;;;;;;9.18;2.38;;;10.10;99.90;;;;;;5023043;28;20577;-46
2022/11/23 09:51:16;;;;;;;7.20;2.35;;;10.20;99.90;;;;;;5051258;28;20665;-46
2022/11/23 09:53:58;;;;;;;16.98;2.63;;;10.30;99.90;;;;;;5051355;28;20210;-45
2022/11/23 09:56:35;;;;;;;8.52;2.45;;;10.30;99.90;;;;;;5064413;28;20209;-45
2022/11/23 09:59:09;;;;;;;12.82;3.05;;;10.20;99.90;;;;;;5071219;28;20178;-46
2022/11/23 10:01:35;;;;;;;8.20;2.25;;;10.30;99.90;;;;;;5071127;28;20209;-46
2022/11/23 10:04:03;;;;;;;8.75;2.08;;;10.50;99.90;;;;;;5071258;28;20253;-46
2022/11/23 10:06:33;;;;;;;9.73;2.05;;;10.40;99.90;;;;;;5071414;28;20513;-46
2022/11/23 10:08:58;;;;;;;8.15;2.00;;;10.50;99.90;;;;;;5071382;28;20641;-45
2022/11/23 10:12:00;;;;;;;10.07;2.20;;;10.60;99.90;;;;;;5070853;28;20174;-45
2022/11/23 10:14:50;;;;;;;10.82;2.42;;;10.60;99.90;;;;;;5071285;28;20181;-46
2022/11/23 10:17:30;;;;;;;6.72;2.00;;;10.70;99.90;;;;;;5070906;28;20177;-45
2022/11/23 10:20:11;;;;;;;6.90;2.60;;;10.70;99.90;;;;;;5071227;28;20549;-46
2022/11/23 10:22:49;;;;;;;16.15;2.20;;;10.80;99.90;;;;;;5070979;28;20315;-45
2022/11/23 10:25:23;;;;;;;8.88;2.10;;;10.70;99.90;;;;;;5070615;28;20165;-46
2022/11/23 10:27:53;;;;;;;6.38;2.28;;;10.60;99.90;;;;;;5070653;28;20165;-45
2022/11/23 10:30:19;;;;;;;8.85;2.08;;;10.80;99.90;;;;;;5070604;28;20169;-46
2022/11/23 10:32:54;;;;;;;11.48;2.60;;;10.90;99.90;;;;;;5070689;28;20201;-46
2022/11/23 10:35:30;;;;;;;6.75;1.95;;;11.00;99.90;;;;;;5070442;28;20165;-45
2022/11/23 10:38:13;;;;;;;8.43;1.92;;;10.90;99.90;;;;;;5070725;28;20181;-46
2022/11/23 10:40:48;;;;;;;5.90;2.40;;;10.90;99.90;;;;;;5070810;28;20227;-45
2022/11/23 10:43:24;;;;;;;7.90;1.90;;;10.90;99.90;;;;;;5070458;28;20584;-45
2022/11/23 10:45:50;;;;;;;11.88;2.22;;;11.00;99.90;;;;;;5070416;28;20222;-45
2022/11/23 10:48:35;;;;;;;10.45;2.20;;;11.00;99.90;;;;;;5070313;28;20624;-52
2022/11/23 10:51:29;;;;;;;9.43;2.05;;;11.10;99.90;;;;;;5070376;28;20174;-45
2022/11/23 10:54:04;;;;;;;10.90;2.20;;;11.10;99.90;;;;;;5070158;28;20201;-45
2022/11/23 10:56:31;;;;;;;4.68;2.10;;;9.40;99.90;;;;;;5070231;28;20165;-45
2022/11/23 10:58:57;;;;;;;8.98;2.22;;;11.00;99.90;;;;;;5070569;28;20287;-45
2022/11/23 11:01:25;;;;;;;10.50;3.33;;;11.10;99.90;;;;;;5069906;28;20239;-46
2022/11/23 11:03:58;;;;;;;9.77;3.78;;;11.20;99.90;;;;;;5070382;28;20201;-45
2022/11/23 11:06:29;;;;;;;12.15;4.38;;;11.20;99.90;;;;;;5070122;28;20165;-45
2022/11/23 11:08:55;;;;;;;5.82;1.98;;;11.10;99.90;;;;;;5052329;28;20525;-45
2022/11/23 11:11:44;;;;;;;7.25;1.90;;;11.10;99.90;;;;;;5070154;28;20162;-45
2022/11/23 11:14:19;;;;;;;8.13;2.95;;;11.10;99.90;;;;;;5070136;28;20640;-45
2022/11/23 11:16:49;;;;;;;8.85;2.85;;;11.20;99.90;;;;;;5070484;28;20515;-45
2022/11/23 11:19:30;;;;;;;14.13;3.53;;;11.20;99.90;;;;;;5070386;28;20182;-45
2022/11/23 11:21:57;;;;;;;12.25;2.78;;;11.20;99.90;;;;;;5070211;28;20162;-46
2022/11/23 11:24:37;;;;;;;12.55;1.90;;;11.20;99.90;;;;;;5070085;28;20178;-46
2022/11/23 11:27:11;;;;;;;8.27;2.08;;;11.30;99.90;;;;;;5069554;28;20166;-45
2022/11/23 11:29:43;;;;;;;5.07;2.15;;;11.20;99.90;;;;;;5069959;28;20747;-45
2022/11/23 11:32:30;;;;;;;6.68;2.10;;;11.20;99.90;;;;;;5051816;28;20634;-46
2022/11/23 11:35:18;;;;;;;6.32;1.85;;;11.40;99.90;;;;;;5069980;28;20200;-46
2022/11/23 11:37:51;;;;;;;8.45;1.92;;;11.30;99.90;;;;;;5069734;28;20642;-45
2022/11/23 11:40:34;;;;;;;6.60;2.13;;;11.20;99.90;;;;;;5069389;28;20208;-46
2022/11/23 11:43:29;;;;;;;4.47;1.40;;;11.10;99.90;;;;;;5070196;28;20526;-45
2022/11/23 11:46:01;;;;;;;5.30;1.52;;;11.20;99.90;;;;;;5067734;28;20540;-45
2022/11/23 11:48:34;;;;;;;4.35;1.60;;;11.10;99.90;;;;;;5070479;28;20257;-46
2022/11/23 11:51:11;;;;;;;9.40;3.42;;;11.20;99.90;;;;;;5073801;28;20219;-46
2022/11/23 11:53:54;;;;;;;7.82;1.70;;;11.00;99.90;;;;;;5073417;28;20213;-45
2022/11/23 11:56:42;;;;;;;7.95;2.35;;;11.00;99.90;;;;;;5073624;28;20168;-45
2022/11/23 11:59:29;;;;;;;3.35;1.38;;;10.80;99.90;;;;;;5073669;28;20215;-46
2022/11/23 12:02:02;;;;;;;8.20;2.40;;;10.60;99.90;;;;;;5073540;28;20178;-47
2022/11/23 12:04:40;;;;;;;4.70;2.10;;;10.40;99.90;;;;;;5073930;28;20530;-46
2022/11/23 12:07:33;;;;;;;6.00;2.22;;;10.40;99.90;;;;;;5073473;28;20548;-46
2022/11/23 12:10:10;;;;;;;8.65;1.75;;;10.30;99.90;;;;;;5073946;28;20166;-50
2022/11/23 12:12:36;;;;;;;7.22;3.10;;;10.40;99.90;;;;;;5073421;28;20690;-45
2022/11/23 12:15:03;;;;;;;7.70;2.83;;;10.30;99.90;;;;;;5073342;28;20181;-45
2022/11/23 12:18:13;;;;;;;16.13;9.32;;;10.20;99.90;;;;;;5073505;28;20178;-47
2022/11/23 12:20:48;;;;;;;6.97;2.78;;;10.20;99.90;;;;;;5073375;28;20176;-45
2022/11/23 12:23:23;;;;;;;4.43;2.00;;;10.20;99.90;;;;;;5073358;28;20215;-48
2022/11/23 12:26:06;;;;;;;8.38;3.22;;;10.30;99.90;;;;;;5073039;28;20166;-46
2022/11/23 12:28:41;;;;;;;8.15;2.33;;;10.40;99.90;;;;;;5054836;28;20180;-49
2022/11/23 12:31:58;;;;;;;6.05;1.80;;;10.60;99.90;;;;;;5072860;28;20641;-46
2022/11/23 12:34:42;;;;;;;4.88;1.92;;;10.50;99.90;;;;;;5027963;28;20209;-45
2022/11/23 12:37:37;;;;;;;3.28;1.52;;;10.60;99.90;;;;;;5073328;28;20177;-45
2022/11/23 12:40:13;;;;;;;7.45;3.05;;;10.50;99.90;;;;;;5043437;28;20264;-46
2022/11/23 12:42:53;;;;;;;7.40;2.30;;;10.50;99.90;;;;;;5072872;28;20166;-46
2022/11/23 12:45:37;;;;;;;3.60;1.30;;;10.40;99.90;;;;;;5072799;28;20193;-44
2022/11/23 12:48:14;;;;;;;5.25;1.58;;;10.30;99.90;;;;;;5072848;28;20173;-46
2022/11/23 12:51:11;;;;;;;6.90;1.90;;;10.20;99.90;;;;;;5072937;28;20659;-46
2022/11/23 12:54:00;;;;;;;7.38;2.47;;;10.20;99.90;;;;;;5072603;28;20201;-47
2022/11/23 12:56:44;;;;;;;9.27;2.30;;;10.20;99.90;;;;;;5072972;28;20162;-49
2022/11/23 12:59:11;;;;;;;4.25;1.70;;;10.20;99.90;;;;;;5054787;28;20189;-46
2022/11/23 13:02:02;;;;;;;8.13;2.78;;;10.20;99.90;;;;;;5071127;28;20255;-46